createdAt,value
2023-05-11T00:02:23.260Z,100866.73
2023-05-11T00:04:49.885Z,100865.75
2023-05-11T00:07:16.495Z,100865.27
2023-05-11T00:09:43.031Z,100865.98
2023-05-11T00:12:09.539Z,100864.23
2023-05-11T00:14:36.155Z,100865.14
2023-05-11T00:17:02.718Z,100863.69
2023-05-11T00:19:31.509Z,100862.70
2023-05-11T00:21:59.039Z,100859.60
2023-05-11T00:24:26.390Z,100859.16
2023-05-11T00:26:52.942Z,100859.80
2023-05-11T00:29:20.020Z,100859.77
2023-05-11T00:31:48.184Z,100861.16
2023-05-11T00:34:15.931Z,100861.31
2023-05-11T00:36:43.148Z,100858.54
2023-05-11T00:39:10.463Z,100859.51
2023-05-11T00:41:37.010Z,100855.60
2023-05-11T00:44:03.682Z,100856.19
2023-05-11T00:46:31.261Z,100855.52
2023-05-11T00:48:58.433Z,100856.83
2023-05-11T00:51:24.988Z,100851.44
2023-05-11T00:53:52.120Z,100848.47
2023-05-11T00:56:20.065Z,100846.64
2023-05-11T00:58:46.742Z,100849.33
2023-05-11T01:01:14.883Z,100846.92
2023-05-11T01:03:41.599Z,100848.01
2023-05-11T01:06:44.635Z,100847.15
2023-05-11T01:09:56.521Z,100846.70
2023-05-11T01:12:55.953Z,100845.61
2023-05-11T01:15:48.147Z,100844.45
2023-05-11T01:18:33.644Z,100841.66
2023-05-11T01:21:05.784Z,100845.80
2023-05-11T01:23:51.104Z,100844.65
2023-05-11T01:26:33.354Z,100845.39
2023-05-11T01:29:38.066Z,100846.29
2023-05-11T01:32:10.308Z,100849.63
2023-05-11T01:34:40.518Z,100847.80
2023-05-11T01:37:13.715Z,100844.24
2023-05-11T01:39:50.772Z,100845.99
2023-05-11T01:42:22.738Z,100845.53
2023-05-11T01:44:53.480Z,100840.35
2023-05-11T01:47:23.409Z,100838.91
2023-05-11T01:49:51.679Z,100840.24
2023-05-11T01:52:23.638Z,100840.12
2023-05-11T01:54:52.955Z,100839.59
2023-05-11T01:57:21.340Z,100839.80
2023-05-11T01:59:50.264Z,100840.74
2023-05-11T02:02:18.695Z,100840.00
2023-05-11T02:04:46.893Z,100839.48
2023-05-11T02:07:14.938Z,100843.11
2023-05-11T02:09:43.066Z,100839.56
2023-05-11T02:12:11.784Z,100839.02
2023-05-11T02:14:39.600Z,100838.11
2023-05-11T02:17:15.639Z,100841.34
2023-05-11T02:19:44.279Z,100840.39
2023-05-11T02:22:12.617Z,100841.11
2023-05-11T02:24:40.074Z,100843.77
2023-05-11T02:27:07.541Z,100844.10
2023-05-11T02:29:34.489Z,100844.44
2023-05-11T02:32:12.478Z,100845.92
2023-05-11T02:34:41.993Z,100849.23
2023-05-11T02:37:20.792Z,100849.35
2023-05-11T02:39:52.835Z,100849.46
2023-05-11T02:42:21.890Z,100850.13
2023-05-11T02:45:03.721Z,100849.89
2023-05-11T02:47:36.558Z,100853.01
2023-05-11T02:50:08.752Z,100855.91
2023-05-11T02:52:41.558Z,100858.87
2023-05-11T02:55:09.386Z,100854.75
2023-05-11T02:57:35.937Z,100855.98
2023-05-11T03:00:05.456Z,100854.67
2023-05-11T03:02:32.090Z,100854.13
2023-05-11T03:04:58.808Z,100851.66
2023-05-11T03:07:25.816Z,100856.83
2023-05-11T03:09:52.889Z,100855.92
2023-05-11T03:12:21.152Z,100854.27
2023-05-11T03:14:48.486Z,100854.11
2023-05-11T03:17:16.733Z,100855.76
2023-05-11T03:19:43.689Z,100859.55
2023-05-11T03:22:11.055Z,100858.19
2023-05-11T03:24:38.495Z,100859.89
2023-05-11T03:27:07.831Z,100859.55
2023-05-11T03:29:38.353Z,100859.52
2023-05-11T03:32:05.490Z,100856.35
2023-05-11T03:34:33.949Z,100859.08
2023-05-11T03:37:01.116Z,100857.98
2023-05-11T03:39:31.183Z,100857.70
2023-05-11T03:42:00.175Z,100861.60
2023-05-11T03:44:28.841Z,100862.66
2023-05-11T03:46:57.734Z,100862.46
2023-05-11T03:49:25.527Z,100867.81
2023-05-11T03:51:53.219Z,100876.05
2023-05-11T03:54:20.607Z,100873.05
2023-05-11T03:56:47.206Z,100876.88
2023-05-11T03:59:17.342Z,100873.79
2023-05-11T04:01:44.253Z,100877.39
2023-05-11T04:04:11.988Z,100879.33
2023-05-11T04:06:38.679Z,100880.97
2023-05-11T04:09:16.922Z,100883.10
2023-05-11T04:11:43.480Z,100884.09
2023-05-11T04:14:09.978Z,100884.54
2023-05-11T04:16:36.648Z,100885.30
2023-05-11T04:19:03.253Z,100886.52
2023-05-11T04:21:29.862Z,100889.05
2023-05-11T04:23:56.621Z,100884.28
2023-05-11T04:26:24.222Z,100885.94
2023-05-11T04:28:50.768Z,100890.73
2023-05-11T04:31:17.285Z,100891.05
2023-05-11T04:33:43.873Z,100896.34
2023-05-11T04:36:11.114Z,100891.30
2023-05-11T04:38:38.334Z,100894.36
2023-05-11T04:41:08.923Z,100893.88
2023-05-11T04:43:36.399Z,100892.83
2023-05-11T04:46:02.944Z,100896.79
2023-05-11T04:48:30.138Z,100900.93
2023-05-11T04:50:58.031Z,100902.17
2023-05-11T04:53:28.612Z,100900.24
2023-05-11T04:55:55.331Z,100899.56
2023-05-11T04:58:21.941Z,100907.53
2023-05-11T05:00:49.054Z,100905.77
2023-05-11T05:03:15.695Z,100904.02
2023-05-11T05:05:42.394Z,100904.39
2023-05-11T05:08:09.925Z,100901.73
2023-05-11T05:10:36.523Z,100902.80
2023-05-11T05:13:03.086Z,100904.61
2023-05-11T05:15:30.763Z,100903.00
2023-05-11T05:17:58.056Z,100906.04
2023-05-11T05:20:24.890Z,100903.48
2023-05-11T05:22:51.869Z,100906.70
2023-05-11T05:25:18.882Z,100905.98
2023-05-11T05:27:45.887Z,100902.27
2023-05-11T05:30:17.557Z,100902.75
2023-05-11T05:32:44.341Z,100907.59
2023-05-11T05:35:10.912Z,100910.30
2023-05-11T05:37:37.850Z,100910.87
2023-05-11T05:40:05.529Z,100913.44
2023-05-11T05:42:33.916Z,100913.02
2023-05-11T05:45:00.539Z,100912.29
2023-05-11T05:47:27.150Z,100912.52
2023-05-11T05:49:53.683Z,100914.71
2023-05-11T05:52:20.309Z,100911.95
2023-05-11T05:54:47.699Z,100915.70
2023-05-11T05:57:15.811Z,100919.05
2023-05-11T05:59:43.459Z,100916.05
2023-05-11T06:02:11.644Z,100916.45
2023-05-11T06:04:38.272Z,100919.56
2023-05-11T06:07:04.864Z,100919.45
2023-05-11T06:09:31.534Z,100917.95
2023-05-11T06:11:58.133Z,100914.09
2023-05-11T06:14:25.331Z,100920.30
2023-05-11T06:16:53.501Z,100918.38
2023-05-11T06:19:21.152Z,100917.88
2023-05-11T06:21:48.530Z,100918.12
2023-05-11T06:24:15.358Z,100920.02
2023-05-11T06:26:43.092Z,100919.67
2023-05-11T06:29:10.085Z,100920.44
2023-05-11T06:31:37.003Z,100922.51
2023-05-11T06:34:04.482Z,100923.15
2023-05-11T06:36:32.254Z,100921.77
2023-05-11T06:38:59.321Z,100921.34
2023-05-11T06:41:26.757Z,100922.52
2023-05-11T06:43:53.277Z,100927.08
2023-05-11T06:46:27.568Z,100926.38
2023-05-11T06:48:54.304Z,100925.36
2023-05-11T06:51:21.961Z,100924.27
2023-05-11T06:53:48.819Z,100928.05
2023-05-11T06:56:15.893Z,100929.90
2023-05-11T06:58:43.093Z,100934.45
2023-05-11T07:01:11.418Z,100930.05
2023-05-11T07:03:38.159Z,100930.13
2023-05-11T07:06:05.108Z,100930.59
2023-05-11T07:08:31.841Z,100924.25
2023-05-11T07:10:58.420Z,100923.33
2023-05-11T07:13:25.152Z,100930.20
2023-05-11T07:15:52.003Z,100928.70
2023-05-11T07:18:18.632Z,100929.16
2023-05-11T07:20:49.948Z,100928.69
2023-05-11T07:23:17.134Z,100925.02
2023-05-11T07:25:43.892Z,100923.41
2023-05-11T07:28:10.595Z,100920.98
2023-05-11T07:30:38.476Z,100922.57
2023-05-11T07:33:06.724Z,100924.61
2023-05-11T07:35:33.784Z,100916.68
2023-05-11T07:38:00.853Z,100911.55
2023-05-11T07:40:28.721Z,100915.00
2023-05-11T07:42:58.680Z,100917.88
2023-05-11T07:45:26.473Z,100917.92
2023-05-11T07:47:53.743Z,100923.52
2023-05-11T07:50:24.463Z,100922.97
2023-05-11T07:52:51.834Z,100920.45
2023-05-11T07:55:20.652Z,100924.97
2023-05-11T07:57:48.435Z,100916.95
2023-05-11T08:00:15.670Z,100912.34
2023-05-11T08:02:42.923Z,100910.54
2023-05-11T08:05:09.863Z,100910.52
2023-05-11T08:07:37.877Z,100909.66
2023-05-11T08:10:06.970Z,100915.66
2023-05-11T08:12:33.777Z,100914.38
2023-05-11T08:15:00.342Z,100911.89
2023-05-11T08:17:27.477Z,100915.35
2023-05-11T08:19:54.408Z,100914.40
2023-05-11T08:22:22.528Z,100910.06
2023-05-11T08:24:50.874Z,100907.81
2023-05-11T08:27:17.970Z,100910.50
2023-05-11T08:29:45.178Z,100910.31
2023-05-11T08:32:11.797Z,100908.84
2023-05-11T08:34:38.702Z,100902.35
2023-05-11T08:37:05.556Z,100905.94
2023-05-11T08:39:46.590Z,100908.08
2023-05-11T08:42:16.642Z,100909.74
2023-05-11T08:44:44.672Z,100898.88
2023-05-11T08:47:22.868Z,100903.91
2023-05-11T08:49:51.785Z,100902.23
2023-05-11T08:52:18.826Z,100897.48
2023-05-11T08:54:46.382Z,100899.92
2023-05-11T08:57:14.822Z,100895.39
2023-05-11T08:59:44.540Z,100896.11
2023-05-11T09:02:16.706Z,100904.36
2023-05-11T09:04:46.866Z,100901.11
2023-05-11T09:07:22.342Z,100897.40
2023-05-11T09:09:49.030Z,100904.81
2023-05-11T09:12:17.025Z,100898.46
2023-05-11T09:14:44.542Z,100899.86
2023-05-11T09:17:11.766Z,100900.27
2023-05-11T09:19:57.717Z,100898.81
2023-05-11T09:22:24.525Z,100901.71
2023-05-11T09:24:51.413Z,100900.00
2023-05-11T09:27:21.318Z,100898.65
2023-05-11T09:29:51.835Z,100895.23
2023-05-11T09:32:18.892Z,100881.90
2023-05-11T09:34:45.916Z,100885.09
2023-05-11T09:37:18.387Z,100880.89
2023-05-11T09:40:13.995Z,100887.27
2023-05-11T09:42:31.868Z,100886.01
2023-05-11T09:44:58.622Z,100885.70
2023-05-11T09:47:25.350Z,100878.30
2023-05-11T09:49:52.044Z,100868.80
2023-05-11T09:52:21.049Z,100864.05
2023-05-11T09:54:51.151Z,100869.77
2023-05-11T09:57:27.231Z,100861.52
2023-05-11T09:59:56.554Z,100863.36
2023-05-11T10:02:25.268Z,100870.70
2023-05-11T10:04:54.853Z,100861.60
2023-05-11T10:07:24.325Z,100862.42
2023-05-11T10:09:53.837Z,100862.64
2023-05-11T10:12:22.207Z,100854.60
2023-05-11T10:14:52.014Z,100863.34
2023-05-11T10:17:20.779Z,100860.89
2023-05-11T10:19:48.997Z,100856.52
2023-05-11T10:22:17.653Z,100853.19
2023-05-11T10:24:44.576Z,100854.30
2023-05-11T10:27:12.966Z,100853.10
2023-05-11T10:29:40.020Z,100840.98
2023-05-11T10:32:07.954Z,100850.04
2023-05-11T10:34:34.708Z,100851.07
2023-05-11T10:37:02.550Z,100846.56
2023-05-11T10:39:30.504Z,100843.94
2023-05-11T10:42:36.302Z,100838.90
2023-05-11T10:45:36.006Z,100840.22
2023-05-11T10:48:30.241Z,100842.02
2023-05-11T10:51:17.333Z,100841.09
2023-05-11T10:54:09.979Z,100839.82
2023-05-11T10:56:54.845Z,100838.53
2023-05-11T10:59:24.423Z,100839.00
2023-05-11T11:01:52.433Z,100835.29
2023-05-11T11:04:20.556Z,100821.23
2023-05-11T11:06:47.246Z,100827.12
2023-05-11T11:09:16.236Z,100827.23
2023-05-11T11:11:50.996Z,100821.46
2023-05-11T11:14:19.628Z,100813.02
2023-05-11T11:17:25.432Z,100811.65
2023-05-11T11:19:52.257Z,100814.87
2023-05-11T11:22:41.716Z,100816.45
2023-05-11T11:25:09.691Z,100816.23
2023-05-11T11:27:45.364Z,100822.02
2023-05-11T11:30:25.491Z,100822.88
2023-05-11T11:32:54.147Z,100814.77
2023-05-11T11:35:39.296Z,100820.23
2023-05-11T11:38:14.346Z,100820.55
2023-05-11T11:40:51.157Z,100816.68
2023-05-11T11:43:21.202Z,100813.38
2023-05-11T11:46:03.192Z,100811.95
2023-05-11T11:48:41.427Z,100812.50
2023-05-11T11:51:13.178Z,100811.34
2023-05-11T11:53:41.230Z,100811.41
2023-05-11T11:56:13.963Z,100811.94
2023-05-11T11:58:44.153Z,100820.97
2023-05-11T12:01:14.760Z,100817.88
2023-05-11T12:03:43.994Z,100805.38
2023-05-11T12:06:12.062Z,100804.27
2023-05-11T12:08:40.500Z,100804.17
2023-05-11T12:11:08.001Z,100805.87
2023-05-11T12:13:35.571Z,100810.25
2023-05-11T12:16:14.498Z,100805.59
2023-05-11T12:18:42.967Z,100801.41
2023-05-11T12:21:23.592Z,100804.84
2023-05-11T12:23:54.878Z,100808.08
2023-05-11T12:26:23.521Z,100811.57
2023-05-11T12:29:08.425Z,100807.26
2023-05-11T12:31:39.524Z,100801.38
2023-05-11T12:34:06.361Z,100804.58
2023-05-11T12:36:34.456Z,100807.64
2023-05-11T12:39:01.170Z,100800.62
2023-05-11T12:41:28.070Z,100791.74
2023-05-11T12:43:56.170Z,100784.36
2023-05-11T12:46:23.582Z,100780.20
2023-05-11T12:48:51.537Z,100786.33
2023-05-11T12:51:42.110Z,100778.94
2023-05-11T12:54:08.878Z,100779.76
2023-05-11T12:56:48.798Z,100781.65
2023-05-11T12:59:35.545Z,100778.08
2023-05-11T13:02:16.005Z,100768.54
2023-05-11T13:04:44.019Z,100766.41
2023-05-11T13:07:11.756Z,100762.05
2023-05-11T13:09:39.516Z,100758.19
2023-05-11T13:12:20.852Z,100765.71
2023-05-11T13:15:04.497Z,100762.55
2023-05-11T13:17:32.596Z,100760.95
2023-05-11T13:20:22.109Z,100756.23
2023-05-11T13:22:49.762Z,100756.14
2023-05-11T13:25:19.571Z,100757.48
2023-05-11T13:27:46.518Z,100758.50
2023-05-11T13:30:13.717Z,100758.71
2023-05-11T13:32:40.458Z,100755.55
2023-05-11T13:35:07.292Z,100751.05
2023-05-11T13:37:33.878Z,100754.96
2023-05-11T13:40:00.887Z,100759.27
2023-05-11T13:42:28.500Z,100755.05
2023-05-11T13:44:55.308Z,100756.79
2023-05-11T13:47:22.194Z,100751.09
2023-05-11T13:49:48.949Z,100749.70
2023-05-11T13:52:15.922Z,100742.25
2023-05-11T13:54:42.512Z,100746.51
2023-05-11T13:57:09.203Z,100749.87
2023-05-11T13:59:35.904Z,100748.33
2023-05-11T14:02:02.607Z,100743.57
2023-05-11T14:04:29.394Z,100743.04
2023-05-11T14:06:56.102Z,100752.92
2023-05-11T14:09:23.427Z,100746.96
2023-05-11T14:11:50.664Z,100740.19
2023-05-11T14:14:17.558Z,100744.52
2023-05-11T14:16:44.249Z,100740.28
2023-05-11T14:19:10.839Z,100742.32
2023-05-11T14:21:37.886Z,100739.64
2023-05-11T14:24:12.263Z,100741.27
2023-05-11T14:26:40.233Z,100733.79
2023-05-11T14:29:07.001Z,100732.17
2023-05-11T14:31:34.907Z,100735.75
2023-05-11T14:34:02.865Z,100735.98
2023-05-11T14:36:29.886Z,100737.17
2023-05-11T14:38:56.646Z,100730.10
2023-05-11T14:41:23.544Z,100727.73
2023-05-11T14:43:50.428Z,100731.63
2023-05-11T14:46:17.810Z,100725.25
2023-05-11T14:48:44.549Z,100723.55
2023-05-11T14:51:11.200Z,100720.23
2023-05-11T14:53:37.781Z,100713.33
2023-05-11T14:56:04.605Z,100715.73
2023-05-11T14:58:31.171Z,100724.75
2023-05-11T15:00:57.892Z,100725.60
2023-05-11T15:03:25.196Z,100727.15
2023-05-11T15:05:52.054Z,100724.33
2023-05-11T15:08:29.085Z,100720.52
2023-05-11T15:10:57.549Z,100727.17
2023-05-11T15:13:24.650Z,100719.73
2023-05-11T15:15:51.778Z,100719.68
2023-05-11T15:18:18.969Z,100720.92
2023-05-11T15:20:46.162Z,100720.38
2023-05-11T15:23:16.583Z,100721.45
2023-05-11T15:25:44.700Z,100723.34
2023-05-11T15:28:11.766Z,100719.63
2023-05-11T15:30:38.701Z,100717.27
2023-05-11T15:33:05.473Z,100722.77
2023-05-11T15:35:34.655Z,100719.20
2023-05-11T15:38:01.324Z,100720.48
2023-05-11T15:40:31.047Z,100721.56
2023-05-11T15:42:58.875Z,100722.92
2023-05-11T15:45:26.358Z,100718.63
2023-05-11T15:47:54.121Z,100715.40
2023-05-11T15:50:21.139Z,100722.17
2023-05-11T15:52:48.040Z,100729.02
2023-05-11T15:55:14.839Z,100733.80
2023-05-11T15:57:41.673Z,100733.95
2023-05-11T16:00:10.617Z,100735.50
2023-05-11T16:02:37.506Z,100732.14
2023-05-11T16:05:04.636Z,100733.38
2023-05-11T16:07:31.470Z,100733.88
2023-05-11T16:09:58.049Z,100736.15
2023-05-11T16:12:24.626Z,100733.86
2023-05-11T16:14:51.281Z,100731.51
2023-05-11T16:17:18.029Z,100732.55
2023-05-11T16:19:44.773Z,100734.95
2023-05-11T16:22:11.461Z,100730.79
2023-05-11T16:24:39.050Z,100729.20
2023-05-11T16:27:05.775Z,100727.87
2023-05-11T16:29:32.491Z,100726.29
2023-05-11T16:31:59.159Z,100722.20
2023-05-11T16:34:26.958Z,100728.18
2023-05-11T16:36:53.583Z,100727.32
2023-05-11T16:39:20.251Z,100728.45
2023-05-11T16:41:46.783Z,100726.74
2023-05-11T16:44:13.352Z,100727.30
2023-05-11T16:46:39.987Z,100722.65
2023-05-11T16:49:06.645Z,100726.16
2023-05-11T16:51:34.068Z,100724.97
2023-05-11T16:54:00.890Z,100721.63
2023-05-11T16:56:27.581Z,100720.59
2023-05-11T16:58:54.197Z,100727.70
2023-05-11T17:01:20.824Z,100727.39
2023-05-11T17:03:47.721Z,100729.92
2023-05-11T17:06:18.975Z,100729.48
2023-05-11T17:08:46.842Z,100732.39
2023-05-11T17:11:13.440Z,100732.69
2023-05-11T17:13:40.091Z,100735.24
2023-05-11T17:16:07.205Z,100735.59
2023-05-11T17:18:33.889Z,100739.27
2023-05-11T17:21:00.772Z,100739.95
2023-05-11T17:23:27.593Z,100740.55
2023-05-11T17:25:54.391Z,100741.63
2023-05-11T17:28:22.279Z,100741.69
2023-05-11T17:30:52.742Z,100745.01
2023-05-11T17:33:19.715Z,100746.47
2023-05-11T17:35:46.486Z,100748.23
2023-05-11T17:38:13.105Z,100749.48
2023-05-11T17:40:39.762Z,100751.43
2023-05-11T17:43:08.735Z,100751.54
2023-05-11T17:45:35.571Z,100752.60
2023-05-11T17:48:02.280Z,100753.63
2023-05-11T17:50:29.073Z,100754.06
2023-05-11T17:52:55.591Z,100754.79
2023-05-11T17:55:22.202Z,100756.38
2023-05-11T17:57:51.427Z,100758.33
2023-05-11T18:00:18.579Z,100762.51
2023-05-11T18:02:51.190Z,100762.92
2023-05-11T18:05:18.369Z,100764.02
2023-05-11T18:07:44.956Z,100767.73
2023-05-11T18:10:12.122Z,100770.08
2023-05-11T18:12:38.718Z,100768.60
2023-05-11T18:15:05.810Z,100772.53
2023-05-11T18:17:32.786Z,100780.98
2023-05-11T18:19:59.401Z,100780.81
2023-05-11T18:22:25.971Z,100783.45
2023-05-11T18:24:52.478Z,100781.87
2023-05-11T18:27:19.112Z,100783.86
2023-05-11T18:29:45.814Z,100787.10
2023-05-11T18:32:12.442Z,100790.54
2023-05-11T18:34:42.414Z,100794.20
2023-05-11T18:37:09.450Z,100793.80
2023-05-11T18:39:36.190Z,100795.16
2023-05-11T18:42:04.901Z,100795.96
2023-05-11T18:44:32.142Z,100800.58
2023-05-11T18:46:59.478Z,100804.29
2023-05-11T18:49:26.271Z,100805.63
2023-05-11T18:51:53.008Z,100807.61
2023-05-11T18:54:19.681Z,100807.92
2023-05-11T18:56:46.367Z,100803.77
2023-05-11T18:59:12.916Z,100805.67
2023-05-11T19:01:47.641Z,100810.10
2023-05-11T19:04:17.655Z,100809.73
2023-05-11T19:06:44.215Z,100810.03
2023-05-11T19:09:10.794Z,100814.13
2023-05-11T19:11:37.893Z,100818.37
2023-05-11T19:14:04.676Z,100821.54
2023-05-11T19:16:32.729Z,100822.05
2023-05-11T19:18:59.694Z,100828.39
2023-05-11T19:21:26.653Z,100832.48
2023-05-11T19:23:53.451Z,100830.27
2023-05-11T19:26:20.141Z,100829.11
2023-05-11T19:28:46.733Z,100835.54
2023-05-11T19:31:13.602Z,100835.27
2023-05-11T19:33:40.517Z,100836.13
2023-05-11T19:36:07.270Z,100837.54
2023-05-11T19:38:35.895Z,100838.73
2023-05-11T19:41:03.150Z,100838.83
2023-05-11T19:43:29.852Z,100840.89
2023-05-11T19:45:56.512Z,100844.39
2023-05-11T19:48:23.293Z,100846.71
2023-05-11T19:50:49.792Z,100845.54
2023-05-11T19:53:16.578Z,100848.13
2023-05-11T19:55:45.432Z,100849.35
2023-05-11T19:58:13.982Z,100852.33
2023-05-11T20:00:43.484Z,100853.30
2023-05-11T20:03:10.306Z,100855.45
2023-05-11T20:05:37.360Z,100851.98
2023-05-11T20:08:06.159Z,100854.30
2023-05-11T20:10:33.516Z,100853.91
2023-05-11T20:13:03.804Z,100855.67
2023-05-11T20:15:31.372Z,100859.17
2023-05-11T20:17:58.028Z,100855.83
2023-05-11T20:20:24.875Z,100856.78
2023-05-11T20:22:52.400Z,100857.84
2023-05-11T20:25:19.223Z,100857.27
2023-05-11T20:27:46.570Z,100858.53
2023-05-11T20:30:13.736Z,100861.57
2023-05-11T20:35:28.027Z,100862.84
2023-05-11T20:37:55.241Z,100863.23
2023-05-11T20:40:22.198Z,100865.02
2023-05-11T20:42:49.008Z,100866.98
2023-05-11T20:45:15.812Z,100869.27
2023-05-11T20:47:42.772Z,100871.09
2023-05-11T20:50:10.233Z,100872.30
2023-05-11T20:52:37.375Z,100869.54
2023-05-11T20:55:04.602Z,100869.83
2023-05-11T20:57:31.495Z,100869.16
2023-05-11T21:02:27.721Z,100869.73
2023-05-11T21:04:54.591Z,100869.56
2023-05-11T21:07:23.056Z,100871.64
2023-05-11T21:09:49.582Z,100876.05
2023-05-11T21:12:16.323Z,100877.35
2023-05-11T21:14:42.905Z,100878.77
2023-05-11T21:17:09.604Z,100880.98
2023-05-11T21:19:36.330Z,100881.93
2023-05-11T21:22:03.180Z,100885.90
2023-05-11T21:24:29.951Z,100885.45
2023-05-11T21:26:56.907Z,100888.39
2023-05-11T21:29:23.552Z,100893.34
2023-05-11T21:31:50.279Z,100895.12
2023-05-11T21:34:17.306Z,100898.85
2023-05-11T21:36:45.637Z,100899.98
2023-05-11T21:39:15.023Z,100900.91
2023-05-11T21:41:42.022Z,100905.41
2023-05-11T21:44:08.906Z,100905.76
2023-05-11T21:46:35.661Z,100908.92
2023-05-11T21:49:02.283Z,100909.96
2023-05-11T21:51:28.979Z,100909.57
2023-05-11T21:53:55.727Z,100908.52
2023-05-11T21:56:23.452Z,100907.79
2023-05-11T21:58:50.309Z,100913.92
2023-05-11T22:01:17.182Z,100918.88
2023-05-11T22:03:44.031Z,100917.02
2023-05-11T22:06:11.091Z,100917.20
2023-05-11T22:08:37.772Z,100922.61
2023-05-11T22:11:04.607Z,100923.91
2023-05-11T22:13:31.107Z,100923.17
2023-05-11T22:15:57.776Z,100922.29
2023-05-11T22:18:24.835Z,100923.30
2023-05-11T22:20:51.472Z,100926.58
2023-05-11T22:23:18.061Z,100927.70
2023-05-11T22:25:44.585Z,100931.90
2023-05-11T22:28:11.113Z,100933.14
2023-05-11T22:30:37.745Z,100934.48
2023-05-11T22:33:04.334Z,100936.28
2023-05-11T22:35:31.043Z,100941.20
2023-05-11T22:37:57.656Z,100943.80
2023-05-11T22:40:24.169Z,100943.12
2023-05-11T22:42:50.665Z,100944.54
2023-05-11T22:45:17.329Z,100939.54
2023-05-11T22:47:44.231Z,100939.65
2023-05-11T22:50:12.070Z,100942.61
2023-05-11T22:52:38.768Z,100942.20
2023-05-11T22:55:05.921Z,100944.05
2023-05-11T22:57:32.554Z,100944.38
2023-05-11T22:59:59.166Z,100943.77
2023-05-11T23:02:25.857Z,100942.01
2023-05-11T23:04:53.059Z,100942.77
2023-05-11T23:07:19.985Z,100944.75
2023-05-11T23:09:46.902Z,100940.15
2023-05-11T23:12:13.444Z,100940.33
2023-05-11T23:14:39.952Z,100939.90
2023-05-11T23:17:06.579Z,100942.75
2023-05-11T23:19:33.734Z,100942.80
2023-05-11T23:22:00.765Z,100947.79
2023-05-11T23:24:28.862Z,100948.48
2023-05-11T23:26:55.483Z,100943.82
2023-05-11T23:29:22.069Z,100946.52
2023-05-11T23:31:48.950Z,100948.35
2023-05-11T23:34:15.740Z,100943.42
2023-05-11T23:36:42.407Z,100943.64
2023-05-11T23:39:09.565Z,100944.72
2023-05-11T23:41:36.366Z,100945.33
2023-05-11T23:44:03.272Z,100944.58
2023-05-11T23:46:29.940Z,100944.84
2023-05-11T23:48:56.428Z,100942.27
2023-05-11T23:51:23.161Z,100944.36
2023-05-11T23:53:49.947Z,100945.33
2023-05-11T23:56:16.542Z,100943.85
2023-05-11T23:58:45.664Z,100944.23
